Llica d'Amunt, Spain
Current Conditions -  °F | °C
As of 5:00 PM on Friday 31 Oct 2014 (Local Time) from LELL Reporting Station
Few Clouds Few Clouds  
Wind Chill: 66°   Ceiling: Unl
Heat Index: 66°   Visibility: 6mi
Dew Point: 59°   Wind: 7mph
Humidity: 78%   Direction: 130°SE
Pressure: 30.21"   Gusts: NA
Location:  41.62°N, 2.23°E
Report Text: LELL 311600Z 13006KT 080V160 9000 FEW020 19/15 Q1023
Loading
Personal Weather Stations






























Interactive Weather Map
Tropical Storm Tracking
New forecast layout! Learn more

10-Day Weather Forecast

Advertisements
Track Severe Weather on mobile